Time;durP1;ratioP1;P1;durP2;ratioP2;P2;SDS_P1;SDS_P2;PMS_P1;PMS_P2;Temp;Humidity;BMP_temperature;BMP_pressure;BME280_temperature;BME280_humidity;BME280_pressure;Samples;Min_cycle;Max_cycle;Signal;HPM_P1;HPM_P2
2023/01/24 00:02:16;;;;;;;196.10;79.68;;;;;;;1.07;100.00;101660.94;5114097;28;20024;-73
2023/01/24 00:04:42;;;;;;;182.90;73.05;;;;;;;1.21;100.00;101669.84;5114400;28;20026;-73
2023/01/24 00:07:07;;;;;;;192.13;75.32;;;;;;;1.35;100.00;101687.25;5113795;28;20053;-73
2023/01/24 00:09:32;;;;;;;179.60;74.30;;;;;;;1.23;100.00;101696.44;5114326;28;20108;-73
2023/01/24 00:11:58;;;;;;;199.02;79.63;;;;;;;1.14;100.00;101692.78;5113588;28;20024;-73
2023/01/24 00:14:23;;;;;;;189.52;76.40;;;;;;;1.14;100.00;101692.78;5114005;28;20065;-72
2023/01/24 00:16:48;;;;;;;183.77;76.18;;;;;;;0.94;100.00;101657.22;5113751;28;20024;-73
2023/01/24 00:19:14;;;;;;;185.45;78.53;;;;;;;1.17;100.00;101691.13;5113389;28;20028;-73
2023/01/24 00:21:39;;;;;;;171.95;73.45;;;;;;;1.03;100.00;101664.28;5113798;28;20052;-73
2023/01/24 00:24:05;;;;;;;200.93;81.72;;;;;;;1.12;100.00;101686.72;5113261;28;20039;-73
2023/01/24 00:26:30;;;;;;;191.90;78.35;;;;;;;1.10;100.00;101688.41;5113955;28;20051;-73
2023/01/24 00:28:55;;;;;;;198.27;80.15;;;;;;;0.93;100.00;101662.31;5113405;28;20042;-73
2023/01/24 00:31:21;;;;;;;184.75;78.15;;;;;;;1.14;100.00;101691.06;5113539;28;20284;-73
2023/01/24 00:33:46;;;;;;;182.73;76.38;;;;;;;1.09;100.00;101674.66;5113373;28;20106;-73
2023/01/24 00:36:12;;;;;;;194.57;80.97;;;;;;;0.84;100.00;101660.34;5113021;28;20027;-73
2023/01/24 00:38:37;;;;;;;191.20;81.00;;;;;;;0.92;100.00;101679.38;5113458;28;20474;-73
2023/01/24 00:41:03;;;;;;;195.85;81.45;;;;;;;0.88;100.00;101680.13;5113187;28;20028;-73
2023/01/24 00:43:28;;;;;;;180.90;78.57;;;;;;;1.03;100.00;101713.03;5113284;28;20034;-73
2023/01/24 00:45:54;;;;;;;194.82;80.38;;;;;;;0.91;100.00;101708.44;5113059;28;20035;-73
2023/01/24 00:48:20;;;;;;;180.88;77.72;;;;;;;0.87;100.00;101680.09;5113173;28;20427;-73
2023/01/24 00:50:45;;;;;;;188.40;80.80;;;;;;;0.91;100.00;101700.75;5113059;28;20111;-73
2023/01/24 00:53:10;;;;;;;184.95;81.40;;;;;;;0.88;100.00;101682.69;5113301;28;20051;-73
2023/01/24 00:55:43;;;;;;;190.35;78.55;;;;;;;0.88;100.00;101684.41;5113190;28;20102;-73
2023/01/24 00:58:08;;;;;;;182.55;78.57;;;;;;;0.98;100.00;101702.66;5112682;28;20030;-73
2023/01/24 01:00:34;;;;;;;184.90;80.07;;;;;;;0.91;100.00;101684.50;5113178;28;20027;-73
2023/01/24 01:02:59;;;;;;;178.73;78.25;;;;;;;0.92;100.00;101705.03;5112739;28;20084;-73
2023/01/24 01:05:25;;;;;;;182.48;80.90;;;;;;;0.67;100.00;101666.75;5111555;28;20031;-73
2023/01/24 01:07:50;;;;;;;173.40;76.50;;;;;;;0.82;100.00;101686.81;5111331;28;20157;-73
2023/01/24 01:10:17;;;;;;;167.38;73.72;;;;;;;0.89;100.00;101699.00;5112465;28;20102;-73
2023/01/24 01:12:42;;;;;;;168.10;73.72;;;;;;;1.02;100.00;101720.69;5112785;28;20114;-73
2023/01/24 01:15:08;;;;;;;166.57;76.15;;;;;;;0.91;100.00;101689.63;5112319;28;20103;-73
2023/01/24 01:17:33;;;;;;;168.32;77.40;;;;;;;1.05;100.00;101718.19;5112625;28;20276;-73
2023/01/24 01:19:58;;;;;;;155.50;74.97;;;;;;;1.04;100.00;101713.88;5112332;28;20459;-73
2023/01/24 01:22:24;;;;;;;158.18;75.97;;;;;;;0.97;100.00;101718.00;5112235;28;20042;-73
2023/01/24 01:24:49;;;;;;;164.68;75.78;;;;;;;0.99;100.00;101721.47;5111848;28;20043;-73
2023/01/24 01:27:15;;;;;;;156.82;73.13;;;;;;;0.95;100.00;101712.81;5112679;28;20020;-73
2023/01/24 01:29:40;;;;;;;146.70;71.70;;;;;;;0.96;100.00;101711.97;5112505;28;20019;-73
2023/01/24 01:32:05;;;;;;;156.68;71.22;;;;;;;0.85;100.00;101694.59;5112263;28;20386;-73
2023/01/24 01:34:31;;;;;;;150.02;72.25;;;;;;;1.05;100.00;101710.47;5112442;28;20076;-73
2023/01/24 01:36:56;;;;;;;155.30;74.88;;;;;;;1.13;100.00;101698.72;5110844;28;20024;-72
2023/01/24 01:39:21;;;;;;;152.45;70.57;;;;;;;0.87;100.00;101670.72;5112225;28;20028;-72
2023/01/24 01:41:47;;;;;;;159.75;73.60;;;;;;;0.84;100.00;101664.63;5112535;28;20027;-72
2023/01/24 01:44:38;;;;;;;148.48;69.85;;;;;;;1.18;100.00;101679.16;5112290;28;20055;-72
2023/01/24 01:47:15;;;;;;;143.15;66.45;;;;;;;1.06;100.00;101677.19;5112115;28;20031;-72
2023/01/24 01:49:46;;;;;;;143.40;66.22;;;;;;;1.16;100.00;101680.84;5112154;28;20427;-72
2023/01/24 01:52:12;;;;;;;143.93;70.07;;;;;;;1.22;100.00;101673.25;5112162;28;20050;-72
2023/01/24 01:54:40;;;;;;;133.93;66.88;;;;;;;1.39;100.00;101687.41;5112424;28;20028;-72
2023/01/24 01:57:13;;;;;;;125.38;64.35;;;;;;;1.31;100.00;101670.94;5112039;28;20020;-72
2023/01/24 01:59:46;;;;;;;143.25;63.38;;;;;;;1.49;100.00;101694.47;5112119;28;20028;-72
2023/01/24 02:02:11;;;;;;;134.88;63.83;;;;;;;1.47;100.00;101669.56;5112020;28;20038;-73
2023/01/24 02:04:41;;;;;;;163.20;74.07;;;;;;;1.32;100.00;101664.09;5111019;28;20019;-72
2023/01/24 02:07:10;;;;;;;201.73;95.95;;;;;;;1.45;100.00;101695.22;5112231;28;20137;-72
2023/01/24 02:09:46;;;;;;;134.07;68.75;;;;;;;1.42;100.00;101697.72;5112258;28;20024;-72
2023/01/24 02:12:24;;;;;;;138.52;63.72;;;;;;;1.11;100.00;101646.50;5111885;28;20027;-72
2023/01/24 02:17:50;;;;;;;134.40;66.80;;;;;;;1.63;100.00;101691.34;5112414;28;20039;-72
2023/01/24 02:20:41;;;;;;;143.98;72.50;;;;;;;1.63;100.00;101693.91;5111792;28;20027;-72
2023/01/24 02:23:25;;;;;;;129.30;62.25;;;;;;;1.52;100.00;101691.13;5110301;28;20042;-72
2023/01/24 02:26:08;;;;;;;138.55;68.63;;;;;;;1.53;100.00;101685.13;5111980;28;20027;-72
2023/01/24 02:28:34;;;;;;;130.63;66.47;;;;;;;1.41;100.00;101669.44;5111947;28;20039;-72
2023/01/24 02:31:01;;;;;;;123.63;60.80;;;;;;;1.37;100.00;101670.22;5111628;28;20525;-73
2023/01/24 02:33:27;;;;;;;133.68;64.15;;;;;;;1.39;100.00;101678.78;5111803;28;20414;-72
2023/01/24 02:36:11;;;;;;;135.77;69.82;;;;;;;1.19;100.00;101645.84;5112539;28;20028;-72
2023/01/24 02:38:40;;;;;;;137.52;67.30;;;;;;;1.34;100.00;101650.44;5115757;28;20027;-72
2023/01/24 02:41:07;;;;;;;155.93;68.32;;;;;;;1.54;100.00;101653.47;5115401;28;20068;-72
2023/01/24 02:43:42;;;;;;;211.05;105.40;;;;;;;1.47;100.00;101647.31;5115478;27;20034;-72
2023/01/24 02:46:07;;;;;;;135.77;67.68;;;;;;;1.48;100.00;101673.91;5115225;28;20070;-72
2023/01/24 02:48:33;;;;;;;143.30;67.40;;;;;;;1.56;100.00;101672.38;5115617;28;20446;-72
2023/01/24 02:53:42;;;;;;;135.55;64.35;;;;;;;1.68;100.00;101674.31;5115354;28;20038;-72
2023/01/24 02:58:53;;;;;;;133.10;63.47;;;;;;;1.67;100.00;101678.59;5115600;28;20112;-72
2023/01/24 03:01:20;;;;;;;118.78;59.30;;;;;;;1.34;100.00;101642.75;5115111;28;20110;-72
2023/01/24 03:03:46;;;;;;;121.75;63.92;;;;;;;1.53;100.00;101674.00;5115227;28;20039;-72
2023/01/24 03:06:14;;;;;;;118.28;61.65;;;;;;;1.59;100.00;101690.41;5114891;28;20028;-72
2023/01/24 03:08:39;;;;;;;122.03;60.30;;;;;;;1.40;100.00;101691.69;5115220;28;20035;-72
2023/01/24 03:11:06;;;;;;;126.90;61.78;;;;;;;1.33;100.00;101669.25;5114972;28;20489;-72
2023/01/24 03:35:26;;;;;;;123.47;60.35;;;;;;;1.40;100.00;101668.59;5114546;28;20558;-72
2023/01/24 03:40:35;;;;;;;115.07;58.35;;;;;;;1.50;100.00;101690.19;5114459;28;20390;-72
2023/01/24 03:43:02;;;;;;;126.47;65.75;;;;;;;1.46;100.00;101686.69;5114409;27;20024;-72
2023/01/24 03:45:32;;;;;;;112.60;59.58;;;;;;;1.45;100.00;101666.97;5114274;28;20046;-72
2023/01/24 03:48:00;;;;;;;124.07;61.10;;;;;;;1.31;100.00;101644.41;5113795;28;20505;-72
2023/01/24 03:53:24;;;;;;;124.53;62.55;;;;;;;1.64;100.00;101693.06;5114286;28;20443;-72
2023/01/24 03:55:54;;;;;;;112.00;57.72;;;;;;;1.45;100.00;101687.53;5114295;28;20110;-72
2023/01/24 03:58:20;;;;;;;108.13;56.55;;;;;;;1.36;100.00;101682.19;5113855;28;20023;-72
2023/01/24 04:00:46;;;;;;;115.72;58.95;;;;;;;1.39;100.00;101665.97;5114012;28;20066;-72
2023/01/24 04:03:11;;;;;;;118.13;61.65;;;;;;;1.59;100.00;101692.97;5113964;28;20024;-72
2023/01/24 04:05:36;;;;;;;119.65;61.28;;;;;;;1.74;100.00;101695.91;5114148;28;20030;-72
2023/01/24 04:08:02;;;;;;;111.53;57.85;;;;;;;1.44;100.00;101683.22;5113972;28;20035;-72
2023/01/24 04:10:28;;;;;;;111.93;56.53;;;;;;;1.46;100.00;101694.38;5113883;28;20020;-72
2023/01/24 04:12:55;;;;;;;120.00;62.25;;;;;;;1.42;100.00;101686.59;5113864;28;20027;-72
2023/01/24 04:15:23;;;;;;;114.07;60.75;;;;;;;1.42;100.00;101681.44;5113496;28;20065;-72
2023/01/24 04:17:49;;;;;;;109.15;58.60;;;;;;;1.66;100.00;101706.84;5113714;28;20521;-72
2023/01/24 04:20:15;;;;;;;116.07;59.85;;;;;;;1.69;100.00;101709.47;5113535;28;20028;-72
2023/01/24 04:22:40;;;;;;;117.68;58.40;;;;;;;1.58;100.00;101703.22;5113319;28;20051;-72
2023/01/24 04:25:06;;;;;;;125.90;61.28;;;;;;;1.65;100.00;101705.97;5113298;28;20479;-72
2023/01/24 04:27:31;;;;;;;118.78;58.42;;;;;;;1.58;100.00;101698.94;5113598;28;20035;-72
2023/01/24 04:29:57;;;;;;;122.65;60.55;;;;;;;1.35;100.00;101698.44;5113985;27;20076;-72
2023/01/24 04:32:22;;;;;;;116.88;58.72;;;;;;;1.39;100.00;101719.88;5113325;28;20027;-75
2023/01/24 04:34:47;;;;;;;118.53;58.55;;;;;;;1.17;100.00;101700.53;5113389;28;20024;-73
2023/01/24 04:37:13;;;;;;;122.95;62.65;;;;;;;1.37;100.00;101714.72;5113403;28;20024;-73
2023/01/24 04:39:38;;;;;;;147.20;72.82;;;;;;;1.23;100.00;101691.28;5113440;28;20027;-73
2023/01/24 04:42:05;;;;;;;124.88;60.22;;;;;;;1.45;100.00;101707.19;5113307;27;20024;-73
2023/01/24 04:44:31;;;;;;;114.97;59.88;;;;;;;1.32;100.00;101695.78;5112922;28;20062;-73
2023/01/24 04:46:56;;;;;;;117.47;59.38;;;;;;;1.58;100.00;101724.63;5113336;28;20074;-73
2023/01/24 04:49:21;;;;;;;134.27;65.25;;;;;;;1.42;100.00;101705.41;5113329;28;20085;-73
2023/01/24 04:51:48;;;;;;;120.57;62.22;;;;;;;1.43;100.00;101696.91;5113308;28;20105;-73
2023/01/24 04:54:13;;;;;;;125.75;67.43;;;;;;;1.55;100.00;101727.13;5112884;28;20054;-73
2023/01/24 04:56:39;;;;;;;125.22;67.63;;;;;;;1.51;100.00;101730.44;5113442;28;20024;-73
2023/01/24 04:59:05;;;;;;;124.25;62.53;;;;;;;1.49;100.00;101721.84;5112408;28;20034;-73
2023/01/24 05:01:30;;;;;;;113.88;59.85;;;;;;;1.38;100.00;101728.41;5112341;28;20050;-73
2023/01/24 05:03:58;;;;;;;116.13;59.85;;;;;;;1.36;100.00;101724.97;5111613;28;20023;-73
2023/01/24 05:06:25;;;;;;;123.15;60.80;;;;;;;1.13;100.00;101699.56;5112690;28;20061;-73
2023/01/24 05:08:52;;;;;;;126.95;65.70;;;;;;;1.34;100.00;101696.66;5112559;28;20076;-73
2023/01/24 05:11:17;;;;;;;119.15;59.55;;;;;;;1.33;100.00;101705.22;5112438;28;20035;-73
2023/01/24 05:13:42;;;;;;;115.78;59.72;;;;;;;1.36;100.00;101717.25;5112505;28;20390;-73
2023/01/24 05:16:08;;;;;;;120.05;59.85;;;;;;;1.44;100.00;101708.91;5112775;28;20031;-73
2023/01/24 05:18:33;;;;;;;109.93;55.90;;;;;;;1.30;100.00;101701.69;5112342;28;20482;-73
2023/01/24 05:21:15;;;;;;;118.22;59.75;;;;;;;1.21;100.00;101692.06;5112489;28;20082;-73
2023/01/24 05:23:41;;;;;;;120.60;61.15;;;;;;;1.40;100.00;101730.22;5112445;28;20020;-73
2023/01/24 05:26:07;;;;;;;123.80;60.92;;;;;;;1.38;100.00;101731.84;5112674;28;20168;-73
2023/01/24 05:28:33;;;;;;;111.88;56.47;;;;;;;1.31;100.00;101726.56;5112402;28;20024;-72
2023/01/24 05:30:59;;;;;;;108.88;58.42;;;;;;;1.21;100.00;101697.22;5112707;28;20036;-73
2023/01/24 05:33:24;;;;;;;119.22;59.92;;;;;;;1.39;100.00;101705.38;5112387;28;20471;-73
2023/01/24 05:35:59;;;;;;;114.53;56.88;;;;;;;1.34;100.00;101721.47;5112478;28;20031;-73
2023/01/24 05:38:24;;;;;;;120.53;59.72;;;;;;;1.30;100.00;101701.69;5112164;28;20019;-73
2023/01/24 05:40:50;;;;;;;116.05;60.67;;;;;;;1.62;100.00;101735.84;5112533;28;20054;-73
2023/01/24 05:43:15;;;;;;;122.70;59.00;;;;;;;1.52;100.00;101719.38;5112385;28;20046;-73
2023/01/24 05:45:40;;;;;;;179.93;110.22;;;;;;;1.50;100.00;101741.56;5112515;28;20051;-73
2023/01/24 05:48:06;;;;;;;131.27;66.35;;;;;;;1.16;100.00;101709.06;5112388;28;20069;-73
2023/01/24 05:50:31;;;;;;;123.03;68.15;;;;;;;1.39;100.00;101728.47;5112160;28;20027;-73
2023/01/24 05:52:56;;;;;;;122.22;62.85;;;;;;;1.29;100.00;101712.81;5112339;28;20110;-73
2023/01/24 05:55:22;;;;;;;137.45;76.35;;;;;;;1.15;100.00;101715.03;5112036;28;20027;-73
2023/01/24 05:57:47;;;;;;;123.85;63.03;;;;;;;1.37;100.00;101729.25;5112164;28;20494;-73
2023/01/24 06:00:13;;;;;;;163.55;86.60;;;;;;;1.53;100.00;101749.34;5112149;28;20531;-73
2023/01/24 06:02:38;;;;;;;127.78;64.43;;;;;;;1.33;100.00;101724.88;5112190;28;20020;-73
2023/01/24 06:05:04;;;;;;;206.57;105.65;;;;;;;1.45;100.00;101746.59;5112093;28;20027;-72
2023/01/24 06:07:29;;;;;;;150.20;77.90;;;;;;;1.07;100.00;101701.13;5111883;28;20024;-73
2023/01/24 06:09:54;;;;;;;138.18;69.80;;;;;;;1.38;100.00;101751.53;5112250;28;20024;-73
2023/01/24 06:12:20;;;;;;;195.38;96.30;;;;;;;1.50;100.00;101750.13;5115105;28;20042;-73
2023/01/24 06:14:45;;;;;;;129.18;65.38;;;;;;;1.59;100.00;101754.59;5116651;28;20054;-73
2023/01/24 06:17:10;;;;;;;163.13;76.53;;;;;;;1.45;100.00;101741.44;5116226;28;20494;-73
2023/01/24 06:19:36;;;;;;;183.15;88.78;;;;;;;1.66;100.00;101761.63;5116197;28;20026;-73
2023/01/24 06:22:17;;;;;;;128.57;62.40;;;;;;;1.54;100.00;101745.06;5116086;28;20440;-72
2023/01/24 06:24:42;;;;;;;155.50;72.97;;;;;;;1.48;100.00;101740.66;5115924;28;20348;-73
2023/01/24 06:27:08;;;;;;;182.52;83.95;;;;;;;1.44;100.00;101736.28;5116087;28;20027;-73
2023/01/24 06:29:34;;;;;;;210.18;96.78;;;;;;;1.55;100.00;101755.38;5115520;28;20456;-73
2023/01/24 06:32:27;;;;;;;230.10;103.13;;;;;;;1.51;100.00;101766.41;5115874;28;20128;-72
2023/01/24 06:35:28;;;;;;;250.63;114.82;;;;;;;1.43;100.00;101767.91;5115977;28;20027;-72
2023/01/24 06:37:53;;;;;;;280.92;126.50;;;;;;;1.41;100.00;101772.16;5072572;28;20132;-72
2023/01/24 06:40:22;;;;;;;175.93;78.47;;;;;;;1.43;100.00;101773.94;5072275;28;20139;-72
2023/01/24 06:42:48;;;;;;;266.38;121.78;;;;;;;1.20;100.00;101739.97;5072183;28;20339;-72
2023/01/24 06:45:14;;;;;;;152.23;70.50;;;;;;;1.39;100.00;101779.81;5072277;28;20059;-72
2023/01/24 06:47:40;;;;;;;225.50;95.93;;;;;;;1.08;100.00;101754.19;5072363;28;20033;-72
2023/01/24 06:50:07;;;;;;;204.52;91.57;;;;;;;1.23;100.00;101770.00;5072376;28;20029;-73
2023/01/24 06:52:33;;;;;;;157.38;74.80;;;;;;;1.03;100.00;101733.56;5072123;28;20526;-73
2023/01/24 06:54:59;;;;;;;154.48;70.45;;;;;;;1.18;100.00;101766.41;5072279;28;20167;-72
2023/01/24 06:57:24;;;;;;;150.35;71.85;;;;;;;1.35;100.00;101784.81;5072029;28;20119;-72
2023/01/24 06:59:49;;;;;;;141.23;68.43;;;;;;;1.32;100.00;101793.34;5072019;28;20031;-73
2023/01/24 07:02:15;;;;;;;218.25;101.55;;;;;;;1.44;100.00;101791.06;5072154;28;20036;-73
2023/01/24 07:04:40;;;;;;;300.92;137.65;;;;;;;1.39;100.00;101769.56;5071935;28;20154;-73
2023/01/24 07:07:06;;;;;;;157.02;73.75;;;;;;;1.48;100.00;101792.88;5072108;28;20101;-73
2023/01/24 07:09:31;;;;;;;161.00;76.88;;;;;;;1.38;100.00;101757.53;5071862;28;20203;-72
2023/01/24 07:11:58;;;;;;;135.55;67.65;;;;;;;1.67;100.00;101793.31;5071980;28;20126;-73
2023/01/24 07:14:24;;;;;;;141.32;67.38;;;;;;;1.41;100.00;101792.69;5087897;28;20066;-73
2023/01/24 07:16:50;;;;;;;136.55;63.70;;;;;;;1.30;100.00;101787.28;5114846;28;20121;-73
2023/01/24 07:19:18;;;;;;;142.23;67.35;;;;;;;1.40;100.00;101799.53;5115015;28;20078;-73
2023/01/24 07:21:44;;;;;;;192.88;94.47;;;;;;;1.55;100.00;101790.47;5114813;28;20047;-72
2023/01/24 07:24:14;;;;;;;188.20;90.50;;;;;;;1.48;100.00;101787.75;5113899;28;20097;-72
2023/01/24 07:26:39;;;;;;;164.95;83.22;;;;;;;1.34;100.00;101748.00;5114532;28;20032;-73
2023/01/24 07:29:05;;;;;;;172.15;82.75;;;;;;;1.62;100.00;101780.38;5114582;28;20028;-73
2023/01/24 07:31:30;;;;;;;131.27;65.65;;;;;;;1.53;100.00;101769.03;5114430;28;20076;-73
2023/01/24 07:33:55;;;;;;;138.73;68.35;;;;;;;1.57;100.00;101771.69;5114804;28;20031;-73
2023/01/24 07:36:21;;;;;;;159.70;76.70;;;;;;;1.62;100.00;101771.81;5114733;28;20110;-73
2023/01/24 07:38:46;;;;;;;164.18;80.18;;;;;;;1.51;100.00;101766.41;5114934;28;20027;-73
2023/01/24 07:41:11;;;;;;;167.25;80.85;;;;;;;1.64;100.00;101777.84;5114524;28;20019;-73
2023/01/24 07:43:37;;;;;;;145.45;68.90;;;;;;;1.73;100.00;101789.22;5114108;28;20199;-72
2023/01/24 07:46:03;;;;;;;166.18;78.35;;;;;;;1.55;100.00;101772.47;5114597;28;20126;-73
2023/01/24 07:48:28;;;;;;;157.85;73.15;;;;;;;1.62;100.00;101767.53;5114318;27;20043;-73
2023/01/24 07:50:58;;;;;;;218.20;96.10;;;;;;;1.50;100.00;101764.66;5114423;28;20460;-72
2023/01/24 07:53:23;;;;;;;190.07;86.10;;;;;;;1.65;100.00;101777.03;5114075;28;20031;-72
2023/01/24 07:55:49;;;;;;;261.45;119.20;;;;;;;1.75;100.00;101790.09;5114190;28;20038;-73
2023/01/24 07:58:14;;;;;;;145.82;68.65;;;;;;;1.79;100.00;101790.19;5113935;28;20535;-73
2023/01/24 08:00:40;;;;;;;155.50;72.13;;;;;;;1.91;100.00;101785.34;5114055;28;20083;-73
2023/01/24 08:03:05;;;;;;;249.55;114.28;;;;;;;1.97;100.00;101785.47;5114374;28;20069;-73
2023/01/24 08:05:30;;;;;;;209.95;95.68;;;;;;;2.02;100.00;101785.56;5113900;28;20455;-73
2023/01/24 08:07:56;;;;;;;177.00;84.55;;;;;;;2.03;100.00;101787.31;5113915;28;20459;-73
2023/01/24 08:10:21;;;;;;;162.45;78.85;;;;;;;2.10;100.00;101782.31;5113743;27;20024;-73
2023/01/24 08:12:48;;;;;;;159.95;77.15;;;;;;;2.14;100.00;101788.41;5113880;28;20489;-73
2023/01/24 08:15:13;;;;;;;167.57;84.43;;;;;;;1.92;100.00;101739.09;5113763;28;20031;-73
2023/01/24 08:17:39;;;;;;;169.85;78.57;;;;;;;2.28;100.00;101794.75;5113784;28;20028;-73
2023/01/24 08:20:06;;;;;;;168.20;76.05;;;;;;;2.26;100.00;101791.25;5113934;28;20031;-73
2023/01/24 08:22:31;;;;;;;118.32;61.20;;;;;;;2.15;100.00;101793.59;5113276;28;20040;-73
2023/01/24 08:24:57;;;;;;;119.53;59.58;;;;;;;2.12;100.00;101802.94;5113765;28;20047;-73
2023/01/24 08:27:22;;;;;;;114.57;58.63;;;;;;;1.99;100.00;101802.66;5113266;28;20379;-73
2023/01/24 08:29:47;;;;;;;126.10;62.90;;;;;;;2.02;100.00;101781.28;5113553;28;20088;-73
2023/01/24 08:32:13;;;;;;;213.45;102.47;;;;;;;1.91;100.00;101775.06;5112744;28;20019;-73
2023/01/24 08:34:38;;;;;;;120.45;61.20;;;;;;;1.93;100.00;101817.94;5111812;28;20730;-75
2023/01/24 08:37:03;;;;;;;187.50;90.18;;;;;;;1.92;100.00;101798.22;5112876;28;20016;-74
2023/01/24 08:39:29;;;;;;;147.40;75.72;;;;;;;2.12;100.00;101820.94;5112831;28;20032;-73
2023/01/24 08:41:54;;;;;;;154.25;78.18;;;;;;;2.22;100.00;101820.31;5113144;28;20051;-73
2023/01/24 08:44:19;;;;;;;200.73;97.38;;;;;;;2.30;100.00;101821.34;5113027;28;20038;-73
2023/01/24 08:46:45;;;;;;;161.25;82.03;;;;;;;2.42;100.00;101824.19;5112818;28;20054;-73
2023/01/24 08:49:10;;;;;;;172.32;85.95;;;;;;;2.08;100.00;101817.44;5111987;28;20031;-73
2023/01/24 08:51:36;;;;;;;172.52;85.40;;;;;;;2.03;100.00;101803.59;5111490;28;20034;-73
2023/01/24 08:54:03;;;;;;;126.15;63.13;;;;;;;2.15;100.00;101837.31;5112006;28;20031;-73
2023/01/24 08:56:28;;;;;;;123.65;63.63;;;;;;;2.18;100.00;101824.50;5111315;28;20486;-73
2023/01/24 08:58:54;;;;;;;141.52;70.15;;;;;;;2.09;100.00;101834.59;5111499;28;20035;-73
2023/01/24 09:01:20;;;;;;;145.75;71.68;;;;;;;2.22;100.00;101835.72;5111722;28;20028;-73
2023/01/24 09:03:45;;;;;;;193.90;87.18;;;;;;;2.11;100.00;101811.50;5106813;28;20055;-73
2023/01/24 09:06:10;;;;;;;158.20;73.97;;;;;;;2.21;100.00;101834.88;5111640;28;20074;-73
2023/01/24 09:08:36;;;;;;;143.27;65.18;;;;;;;2.21;100.00;101842.56;5111247;28;20058;-72
2023/01/24 09:11:01;;;;;;;151.80;72.88;;;;;;;1.98;100.00;101813.78;5112412;28;20027;-72
2023/01/24 09:13:27;;;;;;;146.30;73.80;;;;;;;2.32;100.00;101847.97;5111458;28;20088;-73
2023/01/24 09:15:52;;;;;;;112.03;56.58;;;;;;;2.36;100.00;101851.44;5112527;28;20093;-73
2023/01/24 09:18:17;;;;;;;124.05;59.95;;;;;;;2.19;100.00;101833.06;5112868;28;20463;-73
2023/01/24 09:20:43;;;;;;;143.13;73.53;;;;;;;2.33;100.00;101836.84;5111412;28;20541;-73
2023/01/24 09:23:11;;;;;;;126.93;65.00;;;;;;;2.11;100.00;101826.94;5112301;28;20043;-73
2023/01/24 09:25:37;;;;;;;118.60;62.13;;;;;;;2.28;100.00;101847.88;5112255;28;20501;-73
2023/01/24 09:28:02;;;;;;;132.52;72.50;;;;;;;2.32;100.00;101847.06;5112559;28;20020;-73
2023/01/24 09:30:28;;;;;;;219.35;123.07;;;;;;;2.45;100.00;101831.09;5111156;28;20027;-73
2023/01/24 09:32:53;;;;;;;149.77;76.75;;;;;;;2.47;100.00;101845.72;5112695;28;20114;-73
2023/01/24 09:35:18;;;;;;;141.40;73.40;;;;;;;2.38;100.00;101809.50;5112584;28;20058;-73
2023/01/24 09:37:44;;;;;;;154.18;81.47;;;;;;;2.59;100.00;101837.41;5112188;28;20028;-73
2023/01/24 09:40:23;;;;;;;149.43;72.88;;;;;;;2.66;100.00;101826.41;5112467;28;20024;-73
2023/01/24 09:42:57;;;;;;;118.65;63.90;;;;;;;2.57;100.00;101804.75;5112288;28;20421;-73
2023/01/24 09:45:29;;;;;;;126.95;64.50;;;;;;;2.74;100.00;101836.88;5112033;28;20028;-73
2023/01/24 09:48:01;;;;;;;122.00;67.80;;;;;;;2.65;100.00;101801.50;5112117;28;20384;-73
2023/01/24 09:50:41;;;;;;;128.05;71.78;;;;;;;2.79;100.00;101796.66;5111822;28;20382;-73
2023/01/24 09:53:17;;;;;;;139.23;78.00;;;;;;;3.03;100.00;101824.53;5112086;28;20038;-73
2023/01/24 09:55:43;;;;;;;313.50;173.43;;;;;;;2.90;100.00;101820.00;5112061;28;20031;-73
2023/01/24 09:58:31;;;;;;;138.20;73.93;;;;;;;2.96;100.00;101815.00;5112199;28;20059;-73
2023/01/24 10:01:01;;;;;;;180.98;86.90;;;;;;;2.83;100.00;101818.16;5112137;28;20015;-73
2023/01/24 10:03:27;;;;;;;136.23;65.50;;;;;;;2.70;100.00;101788.75;5111719;28;20027;-73
2023/01/24 10:05:56;;;;;;;111.45;61.05;;;;;;;2.80;100.00;101813.81;5112273;28;20024;-73
2023/01/24 10:08:27;;;;;;;148.30;73.70;;;;;;;2.75;100.00;101823.16;5112284;28;20032;-73
2023/01/24 10:11:39;;;;;;;209.82;98.03;;;;;;;2.66;100.00;101798.09;5112107;28;20020;-73
2023/01/24 10:14:47;;;;;;;218.52;109.32;;;;;;;2.69;100.00;101821.31;5049246;28;20045;-72
2023/01/24 10:17:30;;;;;;;188.32;93.90;;;;;;;2.63;100.00;101820.31;5026894;28;20512;-72
2023/01/24 10:20:24;;;;;;;119.90;68.35;;;;;;;2.60;100.00;101820.25;5029270;28;20033;-72
2023/01/24 10:23:04;;;;;;;151.07;76.68;;;;;;;2.83;100.00;101824.19;5037111;28;20053;-72
2023/01/24 10:25:57;;;;;;;267.27;133.00;;;;;;;2.90;100.00;101817.44;5039502;28;20045;-73
2023/01/24 10:28:33;;;;;;;132.95;69.43;;;;;;;3.04;100.00;101812.56;5028870;28;20045;-73
2023/01/24 10:31:05;;;;;;;187.77;93.43;;;;;;;3.12;100.00;101811.88;5047884;28;20071;-72
2023/01/24 10:33:36;;;;;;;;;;;;;;;2.81;100.00;101812.09;5049043;28;20044;-72
2023/01/24 10:36:09;;;;;;;119.55;59.45;;;;;;;2.68;100.00;101770.69;5048775;28;20431;-71
2023/01/24 10:38:35;;;;;;;122.68;67.55;;;;;;;3.09;100.00;101804.06;5037064;28;20037;-72
2023/01/24 10:41:22;;;;;;;122.63;65.07;;;;;;;3.10;100.00;101803.22;5028819;28;20486;-72
2023/01/24 10:43:53;;;;;;;108.03;57.70;;;;;;;3.01;100.00;101805.63;5028521;28;20041;-72
2023/01/24 10:46:37;;;;;;;115.17;62.27;;;;;;;3.04;100.00;101804.84;5028982;28;20044;-72
2023/01/24 10:49:06;;;;;;;106.00;54.80;;;;;;;3.09;100.00;101783.47;5030159;28;20275;-72
2023/01/24 10:51:31;;;;;;;114.32;58.83;;;;;;;3.13;100.00;101768.97;5091150;28;20024;-72
2023/01/24 10:54:01;;;;;;;107.28;60.13;;;;;;;3.31;100.00;101802.75;5091544;28;20573;-73
2023/01/24 10:56:27;;;;;;;117.63;64.82;;;;;;;3.40;100.00;101802.03;5109468;28;20355;-73
2023/01/24 10:59:12;;;;;;;105.13;56.45;;;;;;;3.42;100.00;101797.78;5113355;28;20032;-72
2023/01/24 11:01:38;;;;;;;110.10;59.50;;;;;;;3.45;100.00;101796.13;5115003;28;20020;-72
2023/01/24 11:04:23;;;;;;;110.97;60.03;;;;;;;3.34;100.00;101766.75;5115318;28;20433;-72
2023/01/24 11:06:50;;;;;;;120.90;61.58;;;;;;;3.43;100.00;101778.91;5115036;28;20024;-72
2023/01/24 11:09:20;;;;;;;142.55;74.53;;;;;;;3.35;100.00;101767.63;5115177;28;20035;-72
2023/01/24 11:11:56;;;;;;;118.13;61.45;;;;;;;3.31;100.00;101778.72;5114811;28;20081;-72
2023/01/24 11:14:31;;;;;;;119.35;67.38;;;;;;;3.30;100.00;101790.72;5115146;28;20034;-72
2023/01/24 11:16:58;;;;;;;111.35;59.78;;;;;;;3.23;100.00;101789.72;5115030;28;20416;-72
2023/01/24 11:19:30;;;;;;;152.45;77.13;;;;;;;3.22;100.00;101775.13;5114860;28;20475;-72
2023/01/24 11:22:01;;;;;;;119.10;63.53;;;;;;;3.33;100.00;101759.88;5114825;28;20139;-72
2023/01/24 11:24:29;;;;;;;111.32;59.58;;;;;;;3.58;100.00;101778.28;5114676;28;20038;-72
2023/01/24 11:27:18;;;;;;;111.35;63.78;;;;;;;3.48;100.00;101767.84;5114694;28;20142;-72
2023/01/24 11:29:44;;;;;;;116.13;63.25;;;;;;;3.51;100.00;101779.91;5103279;28;20035;-72
2023/01/24 11:32:33;;;;;;;95.95;54.78;;;;;;;3.39;100.00;101779.72;5094328;28;20028;-72
2023/01/24 11:35:10;;;;;;;116.93;61.78;;;;;;;3.35;100.00;101783.06;5094430;28;20028;-72
2023/01/24 11:38:16;;;;;;;93.43;52.75;;;;;;;3.27;100.00;101780.34;5094435;28;20063;-72
2023/01/24 11:41:08;;;;;;;102.45;56.15;;;;;;;3.29;100.00;101776.13;5094188;28;20016;-73
2023/01/24 11:44:14;;;;;;;114.93;63.05;;;;;;;3.38;100.00;101767.69;5094209;28;20024;-72
2023/01/24 11:46:51;;;;;;;97.25;52.88;;;;;;;3.16;100.00;101774.13;5093804;28;20016;-72